createdAt,value
2022-12-31T00:02:28.614Z,21.70
2022-12-31T00:05:19.593Z,39.05
2022-12-31T00:08:08.892Z,23.52
2022-12-31T00:10:58.265Z,22.23
2022-12-31T00:13:48.159Z,26.17
2022-12-31T00:16:40.305Z,25.92
2022-12-31T00:19:29.566Z,24.10
2022-12-31T00:22:20.181Z,24.40
2022-12-31T00:25:10.994Z,26.40
2022-12-31T00:28:00.265Z,25.02
2022-12-31T00:30:49.603Z,21.58
2022-12-31T00:33:39.754Z,33.42
2022-12-31T00:36:32.173Z,26.48
2022-12-31T00:39:22.751Z,26.40
2022-12-31T00:42:11.998Z,29.63
2022-12-31T00:45:01.226Z,24.70
2022-12-31T00:47:50.468Z,25.73
2022-12-31T00:50:39.797Z,31.58
2022-12-31T00:53:30.323Z,29.23
2022-12-31T00:56:23.822Z,26.20
2022-12-31T00:59:13.037Z,25.55
2022-12-31T01:02:02.402Z,54.40
2022-12-31T01:04:52.123Z,64.15
2022-12-31T01:07:41.454Z,65.57
2022-12-31T01:10:48.408Z,65.35
2022-12-31T01:13:39.027Z,79.13
2022-12-31T01:16:32.638Z,70.57
2022-12-31T01:19:25.262Z,71.53
2022-12-31T01:22:14.489Z,64.78
2022-12-31T01:25:03.680Z,69.30
2022-12-31T01:27:52.915Z,76.97
2022-12-31T01:30:43.564Z,82.70
2022-12-31T01:33:32.764Z,67.45
2022-12-31T01:36:26.586Z,64.45
2022-12-31T01:39:16.129Z,38.50
2022-12-31T01:42:05.821Z,92.47
2022-12-31T01:44:57.032Z,80.50
2022-12-31T01:47:51.786Z,65.10
2022-12-31T01:50:43.033Z,65.63
2022-12-31T01:53:32.991Z,50.80
2022-12-31T01:56:24.875Z,44.60
2022-12-31T01:59:16.597Z,37.67
2022-12-31T02:02:06.952Z,29.83
2022-12-31T02:05:01.422Z,30.33
2022-12-31T02:07:52.051Z,31.17
2022-12-31T02:10:41.353Z,32.83
2022-12-31T02:13:30.605Z,48.92
2022-12-31T02:16:28.584Z,60.22
2022-12-31T02:19:56.830Z,66.15
2022-12-31T02:23:30.406Z,87.65
2022-12-31T02:26:54.808Z,80.15
2022-12-31T02:30:11.351Z,77.07
2022-12-31T02:33:16.078Z,71.95
2022-12-31T02:36:10.992Z,63.08
2022-12-31T02:39:00.803Z,72.65
2022-12-31T02:41:54.026Z,68.57
2022-12-31T02:47:51.386Z,65.47
2022-12-31T02:50:56.456Z,62.70
2022-12-31T02:54:21.374Z,54.00
2022-12-31T02:57:17.672Z,53.63
2022-12-31T03:00:26.822Z,45.75
2022-12-31T03:03:18.384Z,44.88
2022-12-31T03:06:10.763Z,44.55
2022-12-31T03:09:16.319Z,49.33
2022-12-31T03:12:25.379Z,50.53
2022-12-31T03:15:21.483Z,49.85
2022-12-31T03:18:14.174Z,48.95
2022-12-31T03:21:30.886Z,53.33
2022-12-31T03:24:37.462Z,52.28
2022-12-31T03:27:29.230Z,48.65
2022-12-31T03:30:20.390Z,48.60
2022-12-31T03:33:10.353Z,46.60
2022-12-31T03:35:59.722Z,44.45
2022-12-31T03:38:52.802Z,47.00
2022-12-31T03:44:31.514Z,46.13
2022-12-31T03:47:20.881Z,46.90
2022-12-31T03:50:12.941Z,44.33
2022-12-31T03:53:02.522Z,42.33
2022-12-31T03:55:54.757Z,40.38
2022-12-31T03:58:44.005Z,42.57
2022-12-31T04:01:34.097Z,44.90
2022-12-31T04:04:23.676Z,38.58
2022-12-31T04:07:13.192Z,45.00
2022-12-31T04:10:02.682Z,42.53
2022-12-31T04:12:53.339Z,39.83
2022-12-31T04:15:42.599Z,39.10
2022-12-31T04:18:31.837Z,40.65
2022-12-31T04:21:21.162Z,39.53
2022-12-31T04:24:10.726Z,41.22
2022-12-31T04:27:07.039Z,39.95
2022-12-31T04:29:58.002Z,41.67
2022-12-31T04:32:47.216Z,37.83
2022-12-31T04:35:36.467Z,42.78
2022-12-31T04:38:25.749Z,41.25
2022-12-31T04:41:18.090Z,38.60
2022-12-31T04:44:07.405Z,38.20
2022-12-31T04:46:58.091Z,43.22
2022-12-31T04:49:47.322Z,40.30
2022-12-31T04:52:42.429Z,36.88
2022-12-31T04:55:31.854Z,36.70
2022-12-31T04:58:21.595Z,38.17
2022-12-31T05:01:11.467Z,37.88
2022-12-31T05:04:02.189Z,37.45
2022-12-31T05:06:51.528Z,36.88
2022-12-31T05:09:40.909Z,34.13
2022-12-31T05:12:30.101Z,37.42
2022-12-31T05:15:19.381Z,38.20
2022-12-31T05:18:09.152Z,34.72
2022-12-31T05:21:00.239Z,36.92
2022-12-31T05:23:50.298Z,38.58
2022-12-31T05:26:39.552Z,36.85
2022-12-31T05:29:28.906Z,36.40
2022-12-31T05:32:18.400Z,38.90
2022-12-31T05:35:09.003Z,35.83
2022-12-31T05:38:01.193Z,37.33
2022-12-31T05:40:50.389Z,39.63
2022-12-31T05:43:39.637Z,38.92
2022-12-31T05:46:29.576Z,38.03
2022-12-31T05:49:18.879Z,37.15
2022-12-31T05:52:08.499Z,36.80
2022-12-31T05:54:59.895Z,36.20
2022-12-31T05:57:49.224Z,37.65
2022-12-31T06:00:38.497Z,39.80
2022-12-31T06:03:27.821Z,38.13
2022-12-31T06:06:17.143Z,38.42
2022-12-31T06:09:06.488Z,40.20
2022-12-31T06:11:57.282Z,37.90
2022-12-31T06:14:46.590Z,41.63
2022-12-31T06:17:35.794Z,37.05
2022-12-31T06:20:25.048Z,34.15
2022-12-31T06:23:14.306Z,36.33
2022-12-31T06:26:03.759Z,35.88
2022-12-31T06:28:54.532Z,33.15
2022-12-31T06:31:43.832Z,33.53
2022-12-31T06:34:33.138Z,33.13
2022-12-31T06:37:22.477Z,32.10
2022-12-31T06:40:13.383Z,35.40
2022-12-31T06:43:03.211Z,31.58
2022-12-31T06:45:53.853Z,38.05
2022-12-31T06:48:44.860Z,41.33
2022-12-31T06:51:34.186Z,38.47
2022-12-31T06:54:23.629Z,36.47
2022-12-31T06:57:13.873Z,38.42
2022-12-31T07:00:05.566Z,36.78
2022-12-31T07:03:20.907Z,36.03
2022-12-31T07:06:14.904Z,36.00
2022-12-31T07:09:13.523Z,34.15
2022-12-31T07:12:13.915Z,33.78
2022-12-31T07:15:12.806Z,31.33
2022-12-31T07:18:16.203Z,33.35
2022-12-31T07:23:59.160Z,19.30
2022-12-31T07:27:09.559Z,31.13
2022-12-31T07:30:07.820Z,31.50
2022-12-31T07:33:35.796Z,36.67
2022-12-31T07:36:48.190Z,33.88
2022-12-31T07:39:46.821Z,30.50
2022-12-31T07:42:46.268Z,34.85
2022-12-31T07:45:45.190Z,31.40
2022-12-31T07:48:36.791Z,31.25
2022-12-31T07:51:28.902Z,32.17
2022-12-31T07:54:18.254Z,36.90
2022-12-31T07:57:07.686Z,34.22
2022-12-31T08:00:08.038Z,37.05
2022-12-31T08:03:25.159Z,39.15
2022-12-31T08:06:26.677Z,38.67
2022-12-31T08:09:38.237Z,52.58
2022-12-31T08:12:30.618Z,45.65
2022-12-31T08:15:26.862Z,42.30
2022-12-31T08:18:19.998Z,41.10
2022-12-31T08:21:29.459Z,47.45
2022-12-31T08:24:35.892Z,41.45
2022-12-31T08:27:35.386Z,42.72
2022-12-31T08:30:29.352Z,38.75
2022-12-31T08:33:27.525Z,37.28
2022-12-31T08:36:30.710Z,35.50
2022-12-31T08:39:35.038Z,34.80
2022-12-31T08:42:32.455Z,37.42
2022-12-31T08:45:29.595Z,39.13
2022-12-31T08:48:32.035Z,36.92
2022-12-31T08:51:25.681Z,36.15
2022-12-31T08:54:15.725Z,36.53
2022-12-31T08:57:16.243Z,38.60
2022-12-31T09:00:12.452Z,29.15
2022-12-31T09:03:27.131Z,32.58
2022-12-31T09:06:28.349Z,36.08
2022-12-31T09:09:33.265Z,34.22
2022-12-31T09:12:30.869Z,36.42
2022-12-31T09:15:29.311Z,34.67
2022-12-31T09:18:19.235Z,42.05
2022-12-31T09:21:11.345Z,40.13
2022-12-31T09:24:09.141Z,38.67
2022-12-31T09:27:11.925Z,45.30
2022-12-31T09:30:06.056Z,45.92
2022-12-31T09:33:03.143Z,43.03
2022-12-31T09:35:56.443Z,44.70
2022-12-31T09:39:06.798Z,46.53
2022-12-31T09:42:51.000Z,46.42
2022-12-31T09:49:57.556Z,33.15
2022-12-31T09:53:08.236Z,38.25
2022-12-31T09:56:06.538Z,42.78
2022-12-31T09:59:07.058Z,43.80
2022-12-31T10:02:03.854Z,45.53
2022-12-31T10:05:25.425Z,44.80
2022-12-31T10:11:30.612Z,32.42
2022-12-31T10:14:47.121Z,36.30
2022-12-31T10:17:55.918Z,36.88
2022-12-31T10:20:59.273Z,39.72
2022-12-31T10:27:22.382Z,40.83
2022-12-31T10:30:18.393Z,44.33
2022-12-31T10:33:18.141Z,48.30
2022-12-31T10:36:15.458Z,33.53
2022-12-31T10:39:22.180Z,39.22
2022-12-31T10:43:05.061Z,32.63
2022-12-31T10:46:37.229Z,30.70
2022-12-31T10:50:04.424Z,35.20
2022-12-31T10:53:29.665Z,28.13
2022-12-31T10:57:22.197Z,29.65
2022-12-31T11:00:19.902Z,29.08
2022-12-31T11:04:13.429Z,29.90
2022-12-31T11:07:41.317Z,28.30
2022-12-31T11:10:58.059Z,30.50
2022-12-31T11:14:49.390Z,42.55
2022-12-31T11:17:54.885Z,46.10
2022-12-31T11:21:09.287Z,56.58
2022-12-31T11:24:13.654Z,45.13
2022-12-31T11:27:24.729Z,52.22
2022-12-31T11:30:24.611Z,48.05
2022-12-31T11:33:28.938Z,61.00
2022-12-31T11:36:29.873Z,60.83
2022-12-31T11:39:41.022Z,54.97
2022-12-31T11:42:45.424Z,58.45
2022-12-31T11:46:02.295Z,73.90
2022-12-31T11:49:12.919Z,59.88
2022-12-31T11:52:43.500Z,57.78
2022-12-31T11:55:47.610Z,58.55
2022-12-31T11:58:37.129Z,64.20
2022-12-31T12:01:31.962Z,63.33
2022-12-31T12:04:22.825Z,61.42
2022-12-31T12:07:15.837Z,50.90
2022-12-31T12:10:18.192Z,55.63
2022-12-31T12:13:23.261Z,55.05
2022-12-31T12:16:12.727Z,54.20
2022-12-31T12:19:09.325Z,43.03
2022-12-31T12:22:10.361Z,44.25
2022-12-31T12:25:06.836Z,43.22
2022-12-31T12:27:56.343Z,33.42
2022-12-31T12:30:46.212Z,30.67
2022-12-31T12:33:46.561Z,41.10
2022-12-31T12:36:35.887Z,42.90
2022-12-31T12:39:30.556Z,34.80
2022-12-31T12:42:19.796Z,36.75
2022-12-31T12:45:17.973Z,36.65
2022-12-31T12:48:19.631Z,34.10
2022-12-31T12:51:28.696Z,31.08
2022-12-31T12:54:39.325Z,34.75
2022-12-31T12:57:35.902Z,28.23
2022-12-31T13:00:34.769Z,30.15
2022-12-31T13:07:25.938Z,28.83
2022-12-31T13:10:38.150Z,23.83
2022-12-31T13:13:38.023Z,39.17
2022-12-31T13:16:40.116Z,38.92
2022-12-31T13:19:37.796Z,28.50
2022-12-31T13:22:34.925Z,23.15
2022-12-31T13:25:33.979Z,19.77
2022-12-31T13:28:26.608Z,21.00
2022-12-31T13:31:23.237Z,32.90
2022-12-31T13:34:19.212Z,17.48
2022-12-31T13:37:26.485Z,20.98
2022-12-31T13:40:25.981Z,27.10
2022-12-31T13:43:29.283Z,37.08
2022-12-31T13:46:27.996Z,19.38
2022-12-31T13:49:24.115Z,17.63
2022-12-31T13:52:35.913Z,23.75
2022-12-31T13:55:34.832Z,34.25
2022-12-31T13:58:37.334Z,21.33
2022-12-31T14:01:35.369Z,40.43
2022-12-31T14:04:36.793Z,38.33
2022-12-31T14:07:43.449Z,53.15
2022-12-31T14:11:02.522Z,39.65
2022-12-31T14:14:11.961Z,36.53
2022-12-31T14:17:14.334Z,45.13
2022-12-31T14:20:19.907Z,53.17
2022-12-31T14:23:23.031Z,57.40
2022-12-31T14:26:23.041Z,53.33
2022-12-31T14:29:30.939Z,54.83
2022-12-31T14:33:03.830Z,55.60
2022-12-31T14:36:11.340Z,61.15
2022-12-31T14:39:21.329Z,67.70
2022-12-31T14:42:25.736Z,75.60
2022-12-31T14:45:36.028Z,65.28
2022-12-31T14:48:41.361Z,65.05
2022-12-31T14:51:32.660Z,71.82
2022-12-31T14:54:30.690Z,63.95
2022-12-31T14:57:28.839Z,66.68
2022-12-31T15:00:35.487Z,65.32
2022-12-31T15:03:33.874Z,89.63
2022-12-31T15:06:52.052Z,70.45
2022-12-31T15:10:12.621Z,62.53
2022-12-31T15:13:08.878Z,72.80
2022-12-31T15:16:43.669Z,80.38
2022-12-31T15:20:16.703Z,71.68
2022-12-31T15:23:21.632Z,62.15
2022-12-31T15:26:24.402Z,56.67
2022-12-31T15:29:27.869Z,71.30
2022-12-31T15:32:23.951Z,70.82
2022-12-31T15:35:30.756Z,92.85
2022-12-31T15:38:37.067Z,74.50
2022-12-31T15:41:38.669Z,72.82
2022-12-31T15:44:34.006Z,65.60
2022-12-31T15:47:31.840Z,64.40
2022-12-31T15:50:25.102Z,63.35
2022-12-31T15:56:23.038Z,61.38
2022-12-31T15:59:16.301Z,52.13
2022-12-31T16:02:05.654Z,64.25
2022-12-31T16:04:57.676Z,61.72
2022-12-31T16:07:47.530Z,65.45
2022-12-31T16:10:37.417Z,57.90
2022-12-31T16:13:29.178Z,61.67
2022-12-31T16:16:24.748Z,77.35
2022-12-31T16:19:31.779Z,55.80
2022-12-31T16:22:29.481Z,56.75
2022-12-31T16:25:31.018Z,49.60
2022-12-31T16:28:24.677Z,51.85
2022-12-31T16:31:18.943Z,52.67
2022-12-31T16:34:14.703Z,52.42
2022-12-31T16:37:06.287Z,46.60
2022-12-31T16:40:21.505Z,42.75
2022-12-31T16:43:29.165Z,48.47
2022-12-31T16:46:23.069Z,43.40
2022-12-31T16:49:21.404Z,38.70
2022-12-31T16:52:28.463Z,36.22
2022-12-31T16:55:22.753Z,39.47
2022-12-31T16:58:20.901Z,34.63
2022-12-31T17:01:19.104Z,34.92
2022-12-31T17:04:13.710Z,32.15
2022-12-31T17:07:37.264Z,35.63
2022-12-31T17:10:35.143Z,33.35
2022-12-31T17:13:30.931Z,37.17
2022-12-31T17:16:20.791Z,34.28
2022-12-31T17:19:39.005Z,34.03
2022-12-31T17:22:36.922Z,41.13
2022-12-31T17:25:31.278Z,34.53
2022-12-31T17:28:24.355Z,35.92
2022-12-31T17:31:36.240Z,35.00
2022-12-31T17:34:30.638Z,44.80
2022-12-31T17:37:25.052Z,50.28
2022-12-31T17:40:50.768Z,48.92
2022-12-31T17:43:41.373Z,54.65
2022-12-31T17:46:30.919Z,52.15
2022-12-31T17:49:31.682Z,48.83
2022-12-31T17:52:20.921Z,49.22
2022-12-31T17:55:10.132Z,50.88
2022-12-31T17:58:06.231Z,69.47
2022-12-31T18:00:56.187Z,64.15
2022-12-31T18:03:45.710Z,65.25
2022-12-31T18:06:35.010Z,51.40
2022-12-31T18:09:24.726Z,63.95
2022-12-31T18:12:15.723Z,57.95
2022-12-31T18:15:09.223Z,59.50
2022-12-31T18:17:58.565Z,58.00
2022-12-31T18:20:49.114Z,55.35
2022-12-31T18:23:42.611Z,64.97
2022-12-31T18:26:32.736Z,64.18
2022-12-31T18:29:23.703Z,60.30
2022-12-31T18:32:23.779Z,60.78
2022-12-31T18:35:48.677Z,64.50
2022-12-31T18:38:26.401Z,56.63
2022-12-31T18:41:21.320Z,61.08
2022-12-31T18:44:14.963Z,65.22
2022-12-31T18:47:04.600Z,67.35
2022-12-31T18:49:55.292Z,91.35
2022-12-31T18:52:44.906Z,82.40
2022-12-31T18:55:40.326Z,79.00
2022-12-31T18:58:29.541Z,96.68
2022-12-31T19:01:29.032Z,92.50
2022-12-31T19:04:27.584Z,94.30
2022-12-31T19:07:18.553Z,96.18
2022-12-31T19:10:08.836Z,98.65
2022-12-31T19:12:58.169Z,99.05
2022-12-31T19:15:50.098Z,97.15
2022-12-31T19:18:39.315Z,111.90
2022-12-31T19:21:28.580Z,102.47
2022-12-31T19:24:21.986Z,98.43
2022-12-31T19:27:17.089Z,85.85
2022-12-31T19:30:08.005Z,87.97
2022-12-31T19:32:57.662Z,84.57
2022-12-31T19:35:47.897Z,88.55
2022-12-31T19:38:37.201Z,87.40
2022-12-31T19:41:27.893Z,86.22
2022-12-31T19:44:19.207Z,94.32
2022-12-31T19:47:12.965Z,79.25
2022-12-31T19:50:02.275Z,85.90
2022-12-31T19:52:55.259Z,92.13
2022-12-31T19:55:44.907Z,92.53
2022-12-31T19:58:35.558Z,90.78
2022-12-31T20:01:26.599Z,90.63
2022-12-31T20:04:15.878Z,80.53
2022-12-31T20:07:05.189Z,82.40
2022-12-31T20:09:54.416Z,71.38
2022-12-31T20:12:44.767Z,86.03
2022-12-31T20:15:35.709Z,87.90
2022-12-31T20:18:25.066Z,80.45
2022-12-31T20:21:17.999Z,80.82
2022-12-31T20:24:08.043Z,78.68
2022-12-31T20:26:57.333Z,84.03
2022-12-31T20:29:47.171Z,87.53
2022-12-31T20:32:38.120Z,85.15
2022-12-31T20:35:27.362Z,92.82
2022-12-31T20:38:17.022Z,97.97
2022-12-31T20:41:08.125Z,104.68
2022-12-31T20:43:57.464Z,97.35
2022-12-31T20:46:46.752Z,105.97
2022-12-31T20:50:09.865Z,110.07
2022-12-31T20:52:51.389Z,110.25
2022-12-31T20:55:42.487Z,114.28
2022-12-31T20:58:32.376Z,120.30
2022-12-31T21:01:22.762Z,112.72
2022-12-31T21:04:13.926Z,102.75
2022-12-31T21:07:06.999Z,105.20
2022-12-31T21:09:57.015Z,106.53
2022-12-31T21:12:53.761Z,105.38
2022-12-31T21:15:43.773Z,105.72
2022-12-31T21:18:33.799Z,108.95
2022-12-31T21:21:24.752Z,106.38
2022-12-31T21:24:23.255Z,101.35
2022-12-31T21:27:16.518Z,103.22
2022-12-31T21:30:19.023Z,109.60
2022-12-31T21:33:09.786Z,108.53
2022-12-31T21:36:04.823Z,100.80
2022-12-31T21:38:54.372Z,100.00
2022-12-31T21:41:55.071Z,94.40
2022-12-31T21:44:45.221Z,116.55
2022-12-31T21:47:52.142Z,105.80
2022-12-31T21:50:42.554Z,108.57
2022-12-31T21:53:36.933Z,108.95
2022-12-31T21:56:26.360Z,103.38
2022-12-31T21:59:34.371Z,108.57
2022-12-31T22:02:59.702Z,101.95
2022-12-31T22:05:53.926Z,104.03
2022-12-31T22:08:45.696Z,106.43
2022-12-31T22:11:35.073Z,111.13
2022-12-31T22:14:25.814Z,107.15
2022-12-31T22:17:15.244Z,179.23
2022-12-31T22:20:26.410Z,188.32
2022-12-31T22:23:16.038Z,128.77
2022-12-31T22:26:06.597Z,114.47
2022-12-31T22:28:59.524Z,86.55
2022-12-31T22:31:50.768Z,98.03
2022-12-31T22:34:40.161Z,100.43
2022-12-31T22:37:56.384Z,101.00
2022-12-31T22:40:38.861Z,106.72
2022-12-31T22:43:28.210Z,89.45
2022-12-31T22:46:19.744Z,79.15
2022-12-31T22:49:12.437Z,80.93
2022-12-31T22:52:04.358Z,80.75
2022-12-31T22:54:58.200Z,76.97
2022-12-31T22:57:47.642Z,67.68
2022-12-31T23:00:42.138Z,61.55
2022-12-31T23:03:31.660Z,62.08
2022-12-31T23:06:25.317Z,48.35
2022-12-31T23:09:34.155Z,74.40
2022-12-31T23:12:23.491Z,56.30
2022-12-31T23:15:30.118Z,43.83
2022-12-31T23:18:36.802Z,137.85
2022-12-31T23:21:44.920Z,67.30
2022-12-31T23:24:34.202Z,52.88
2022-12-31T23:27:23.680Z,39.05
2022-12-31T23:30:14.609Z,49.95
2022-12-31T23:33:03.916Z,54.15
2022-12-31T23:36:05.126Z,36.25
2022-12-31T23:38:57.596Z,40.97
2022-12-31T23:41:46.887Z,48.70
2022-12-31T23:44:36.188Z,32.72
2022-12-31T23:47:25.444Z,46.38
2022-12-31T23:50:14.702Z,103.85
2022-12-31T23:53:03.895Z,84.85
2022-12-31T23:55:54.621Z,145.60
2022-12-31T23:58:44.108Z,186.57
